sensor_id;sensor_type;location;lat;lon;timestamp;P1;durP1;ratioP1;P2;durP2;ratioP2
10894;SDS011;5500;49.886;8.074;2023-11-21T00:01:12;2.50;;;1.40;;
10894;SDS011;5500;49.886;8.074;2023-11-21T00:03:40;3.30;;;1.87;;
10894;SDS011;5500;49.886;8.074;2023-11-21T00:06:08;2.73;;;1.30;;
10894;SDS011;5500;49.886;8.074;2023-11-21T00:08:36;4.70;;;1.50;;
10894;SDS011;5500;49.886;8.074;2023-11-21T00:11:05;3.33;;;1.60;;
10894;SDS011;5500;49.886;8.074;2023-11-21T00:13:33;3.60;;;1.60;;
10894;SDS011;5500;49.886;8.074;2023-11-21T00:16:01;3.20;;;1.50;;
10894;SDS011;5500;49.886;8.074;2023-11-21T00:18:30;3.60;;;1.70;;
10894;SDS011;5500;49.886;8.074;2023-11-21T00:20:58;1.33;;;1.10;;
10894;SDS011;5500;49.886;8.074;2023-11-21T00:23:26;3.20;;;1.43;;
10894;SDS011;5500;49.886;8.074;2023-11-21T00:25:54;2.17;;;1.27;;
10894;SDS011;5500;49.886;8.074;2023-11-21T00:28:23;2.80;;;1.27;;
10894;SDS011;5500;49.886;8.074;2023-11-21T00:30:52;2.73;;;1.40;;
10894;SDS011;5500;49.886;8.074;2023-11-21T00:33:20;2.03;;;1.80;;
10894;SDS011;5500;49.886;8.074;2023-11-21T00:35:48;2.90;;;1.50;;
10894;SDS011;5500;49.886;8.074;2023-11-21T00:38:16;2.23;;;1.37;;
10894;SDS011;5500;49.886;8.074;2023-11-21T00:40:46;2.20;;;1.40;;
10894;SDS011;5500;49.886;8.074;2023-11-21T00:43:13;2.10;;;1.60;;
10894;SDS011;5500;49.886;8.074;2023-11-21T00:45:43;2.87;;;1.70;;
10894;SDS011;5500;49.886;8.074;2023-11-21T00:48:10;3.73;;;1.70;;
10894;SDS011;5500;49.886;8.074;2023-11-21T00:50:39;2.30;;;1.57;;
10894;SDS011;5500;49.886;8.074;2023-11-21T00:53:07;2.20;;;1.70;;
10894;SDS011;5500;49.886;8.074;2023-11-21T00:55:35;2.17;;;1.60;;
10894;SDS011;5500;49.886;8.074;2023-11-21T00:58:03;3.50;;;1.53;;
10894;SDS011;5500;49.886;8.074;2023-11-21T01:00:33;2.53;;;1.33;;
10894;SDS011;5500;49.886;8.074;2023-11-21T01:03:02;3.80;;;1.70;;
10894;SDS011;5500;49.886;8.074;2023-11-21T01:05:30;2.13;;;1.10;;
10894;SDS011;5500;49.886;8.074;2023-11-21T01:07:58;1.30;;;1.20;;
10894;SDS011;5500;49.886;8.074;2023-11-21T01:10:26;3.00;;;1.50;;
10894;SDS011;5500;49.886;8.074;2023-11-21T01:12:54;1.80;;;1.33;;
10894;SDS011;5500;49.886;8.074;2023-11-21T01:15:22;3.63;;;1.50;;
10894;SDS011;5500;49.886;8.074;2023-11-21T01:17:52;2.63;;;1.40;;
10894;SDS011;5500;49.886;8.074;2023-11-21T01:20:21;2.77;;;1.90;;
10894;SDS011;5500;49.886;8.074;2023-11-21T01:22:49;2.87;;;1.40;;
10894;SDS011;5500;49.886;8.074;2023-11-21T01:25:16;1.10;;;0.97;;
10894;SDS011;5500;49.886;8.074;2023-11-21T01:27:44;2.40;;;1.40;;
10894;SDS011;5500;49.886;8.074;2023-11-21T01:30:12;1.30;;;1.07;;
10894;SDS011;5500;49.886;8.074;2023-11-21T01:32:40;5.60;;;1.53;;
10894;SDS011;5500;49.886;8.074;2023-11-21T01:35:08;1.67;;;1.10;;
10894;SDS011;5500;49.886;8.074;2023-11-21T01:37:38;2.73;;;1.33;;
10894;SDS011;5500;49.886;8.074;2023-11-21T01:40:06;2.33;;;1.20;;
10894;SDS011;5500;49.886;8.074;2023-11-21T01:42:40;1.23;;;1.13;;
10894;SDS011;5500;49.886;8.074;2023-11-21T01:45:10;1.40;;;1.00;;
10894;SDS011;5500;49.886;8.074;2023-11-21T01:47:39;2.30;;;1.20;;
10894;SDS011;5500;49.886;8.074;2023-11-21T01:50:09;1.80;;;1.20;;
10894;SDS011;5500;49.886;8.074;2023-11-21T01:52:41;2.90;;;1.40;;
10894;SDS011;5500;49.886;8.074;2023-11-21T01:55:10;3.63;;;1.40;;
10894;SDS011;5500;49.886;8.074;2023-11-21T01:57:46;1.27;;;1.17;;
10894;SDS011;5500;49.886;8.074;2023-11-21T02:00:15;1.53;;;1.30;;
10894;SDS011;5500;49.886;8.074;2023-11-21T02:02:43;1.20;;;1.10;;
10894;SDS011;5500;49.886;8.074;2023-11-21T02:05:11;2.13;;;1.60;;
10894;SDS011;5500;49.886;8.074;2023-11-21T02:07:39;2.07;;;1.60;;
10894;SDS011;5500;49.886;8.074;2023-11-21T02:10:09;2.60;;;1.93;;
10894;SDS011;5500;49.886;8.074;2023-11-21T02:12:41;2.63;;;2.10;;
10894;SDS011;5500;49.886;8.074;2023-11-21T02:15:10;3.23;;;2.37;;
10894;SDS011;5500;49.886;8.074;2023-11-21T02:17:46;2.50;;;2.30;;
10894;SDS011;5500;49.886;8.074;2023-11-21T02:20:18;4.87;;;2.03;;
10894;SDS011;5500;49.886;8.074;2023-11-21T02:22:51;2.53;;;2.30;;
10894;SDS011;5500;49.886;8.074;2023-11-21T02:25:23;3.13;;;2.40;;
10894;SDS011;5500;49.886;8.074;2023-11-21T02:27:52;3.23;;;2.50;;
10894;SDS011;5500;49.886;8.074;2023-11-21T02:30:21;2.57;;;2.10;;
10894;SDS011;5500;49.886;8.074;2023-11-21T02:32:49;2.90;;;2.17;;
10894;SDS011;5500;49.886;8.074;2023-11-21T02:35:19;2.27;;;1.77;;
10894;SDS011;5500;49.886;8.074;2023-11-21T02:37:48;2.40;;;1.97;;
10894;SDS011;5500;49.886;8.074;2023-11-21T02:40:17;2.60;;;2.10;;
10894;SDS011;5500;49.886;8.074;2023-11-21T02:42:46;3.47;;;2.10;;
10894;SDS011;5500;49.886;8.074;2023-11-21T02:45:14;2.30;;;2.10;;
10894;SDS011;5500;49.886;8.074;2023-11-21T02:47:43;2.83;;;2.20;;
10894;SDS011;5500;49.886;8.074;2023-11-21T02:50:11;2.90;;;1.80;;
10894;SDS011;5500;49.886;8.074;2023-11-21T02:52:39;5.97;;;2.70;;
10894;SDS011;5500;49.886;8.074;2023-11-21T02:55:07;4.83;;;3.20;;
10894;SDS011;5500;49.886;8.074;2023-11-21T02:57:37;3.90;;;3.60;;
10894;SDS011;5500;49.886;8.074;2023-11-21T03:00:05;4.63;;;4.17;;
10894;SDS011;5500;49.886;8.074;2023-11-21T03:02:34;9.53;;;4.50;;
10894;SDS011;5500;49.886;8.074;2023-11-21T03:05:05;4.97;;;4.43;;
10894;SDS011;5500;49.886;8.074;2023-11-21T03:07:35;10.63;;;5.50;;
10894;SDS011;5500;49.886;8.074;2023-11-21T03:10:03;12.37;;;6.00;;
10894;SDS011;5500;49.886;8.074;2023-11-21T03:12:32;9.00;;;6.80;;
10894;SDS011;5500;49.886;8.074;2023-11-21T03:15:01;7.87;;;5.77;;
10894;SDS011;5500;49.886;8.074;2023-11-21T03:17:28;14.10;;;7.10;;
10894;SDS011;5500;49.886;8.074;2023-11-21T03:19:56;6.37;;;5.77;;
10894;SDS011;5500;49.886;8.074;2023-11-21T03:22:24;7.70;;;6.40;;
10894;SDS011;5500;49.886;8.074;2023-11-21T03:24:52;5.53;;;5.03;;
10894;SDS011;5500;49.886;8.074;2023-11-21T03:27:20;6.60;;;6.00;;
10894;SDS011;5500;49.886;8.074;2023-11-21T03:29:48;6.17;;;5.20;;
10894;SDS011;5500;49.886;8.074;2023-11-21T03:32:17;5.00;;;4.60;;
10894;SDS011;5500;49.886;8.074;2023-11-21T03:34:53;5.73;;;4.93;;
10894;SDS011;5500;49.886;8.074;2023-11-21T03:37:22;6.60;;;5.17;;
10894;SDS011;5500;49.886;8.074;2023-11-21T03:39:51;4.93;;;4.53;;
10894;SDS011;5500;49.886;8.074;2023-11-21T03:42:19;4.80;;;4.30;;
10894;SDS011;5500;49.886;8.074;2023-11-21T03:44:46;5.07;;;4.67;;
10894;SDS011;5500;49.886;8.074;2023-11-21T03:47:14;4.00;;;3.70;;
10894;SDS011;5500;49.886;8.074;2023-11-21T03:49:43;5.53;;;3.70;;
10894;SDS011;5500;49.886;8.074;2023-11-21T03:52:11;4.17;;;3.80;;
10894;SDS011;5500;49.886;8.074;2023-11-21T03:54:39;4.00;;;3.60;;
10894;SDS011;5500;49.886;8.074;2023-11-21T03:57:07;4.10;;;3.70;;
10894;SDS011;5500;49.886;8.074;2023-11-21T03:59:35;3.70;;;3.03;;
10894;SDS011;5500;49.886;8.074;2023-11-21T04:02:03;3.10;;;2.80;;
10894;SDS011;5500;49.886;8.074;2023-11-21T04:04:31;3.90;;;3.60;;
10894;SDS011;5500;49.886;8.074;2023-11-21T04:07:00;3.33;;;3.03;;
10894;SDS011;5500;49.886;8.074;2023-11-21T04:09:28;2.90;;;2.67;;
10894;SDS011;5500;49.886;8.074;2023-11-21T04:11:55;2.30;;;2.10;;
10894;SDS011;5500;49.886;8.074;2023-11-21T04:14:23;1.83;;;1.73;;
10894;SDS011;5500;49.886;8.074;2023-11-21T04:16:51;1.40;;;1.30;;
10894;SDS011;5500;49.886;8.074;2023-11-21T04:19:20;1.60;;;1.50;;
10894;SDS011;5500;49.886;8.074;2023-11-21T04:21:48;1.30;;;1.20;;
10894;SDS011;5500;49.886;8.074;2023-11-21T04:24:17;1.60;;;1.40;;
10894;SDS011;5500;49.886;8.074;2023-11-21T04:26:45;1.30;;;1.20;;
10894;SDS011;5500;49.886;8.074;2023-11-21T04:29:12;1.40;;;1.30;;
10894;SDS011;5500;49.886;8.074;2023-11-21T04:31:40;1.40;;;1.30;;
10894;SDS011;5500;49.886;8.074;2023-11-21T04:34:08;1.70;;;1.60;;
10894;SDS011;5500;49.886;8.074;2023-11-21T04:36:36;1.60;;;1.50;;
10894;SDS011;5500;49.886;8.074;2023-11-21T04:39:04;1.50;;;1.40;;
10894;SDS011;5500;49.886;8.074;2023-11-21T04:41:34;1.53;;;1.43;;
10894;SDS011;5500;49.886;8.074;2023-11-21T04:44:02;1.90;;;1.40;;
10894;SDS011;5500;49.886;8.074;2023-11-21T04:46:31;2.87;;;1.67;;
10894;SDS011;5500;49.886;8.074;2023-11-21T04:48:59;1.60;;;1.50;;
10894;SDS011;5500;49.886;8.074;2023-11-21T04:51:27;2.17;;;1.97;;
10894;SDS011;5500;49.886;8.074;2023-11-21T04:53:54;2.33;;;2.13;;
10894;SDS011;5500;49.886;8.074;2023-11-21T04:56:22;2.67;;;2.47;;
10894;SDS011;5500;49.886;8.074;2023-11-21T04:58:51;3.23;;;2.90;;
10894;SDS011;5500;49.886;8.074;2023-11-21T05:01:20;4.60;;;3.17;;
10894;SDS011;5500;49.886;8.074;2023-11-21T05:03:48;3.80;;;3.50;;
10894;SDS011;5500;49.886;8.074;2023-11-21T05:06:16;4.93;;;3.37;;
10894;SDS011;5500;49.886;8.074;2023-11-21T05:08:44;4.83;;;3.73;;
10894;SDS011;5500;49.886;8.074;2023-11-21T05:11:11;3.87;;;3.47;;
10894;SDS011;5500;49.886;8.074;2023-11-21T05:13:39;3.77;;;3.47;;
10894;SDS011;5500;49.886;8.074;2023-11-21T05:16:08;4.10;;;3.70;;
10894;SDS011;5500;49.886;8.074;2023-11-21T05:18:36;3.93;;;3.30;;
10894;SDS011;5500;49.886;8.074;2023-11-21T05:21:03;3.50;;;3.20;;
10894;SDS011;5500;49.886;8.074;2023-11-21T05:23:31;2.97;;;2.67;;
10894;SDS011;5500;49.886;8.074;2023-11-21T05:26:00;2.20;;;1.97;;
10894;SDS011;5500;49.886;8.074;2023-11-21T05:28:27;2.90;;;2.60;;
10894;SDS011;5500;49.886;8.074;2023-11-21T05:30:55;2.67;;;2.47;;
10894;SDS011;5500;49.886;8.074;2023-11-21T05:33:41;2.40;;;2.20;;
10894;SDS011;5500;49.886;8.074;2023-11-21T05:36:09;2.33;;;2.13;;
10894;SDS011;5500;49.886;8.074;2023-11-21T05:38:37;2.40;;;2.20;;
10894;SDS011;5500;49.886;8.074;2023-11-21T05:41:05;3.30;;;2.30;;
10894;SDS011;5500;49.886;8.074;2023-11-21T05:43:32;2.47;;;2.27;;
10894;SDS011;5500;49.886;8.074;2023-11-21T05:46:02;3.53;;;2.60;;
10894;SDS011;5500;49.886;8.074;2023-11-21T05:48:29;3.43;;;2.70;;
10894;SDS011;5500;49.886;8.074;2023-11-21T05:50:59;3.50;;;2.80;;
10894;SDS011;5500;49.886;8.074;2023-11-21T05:53:28;3.70;;;2.53;;
10894;SDS011;5500;49.886;8.074;2023-11-21T05:55:55;3.47;;;3.17;;
10894;SDS011;5500;49.886;8.074;2023-11-21T05:58:23;5.03;;;3.63;;
10894;SDS011;5500;49.886;8.074;2023-11-21T06:00:51;7.57;;;3.27;;
10894;SDS011;5500;49.886;8.074;2023-11-21T06:03:19;4.67;;;3.67;;
10894;SDS011;5500;49.886;8.074;2023-11-21T06:05:46;4.40;;;3.50;;
10894;SDS011;5500;49.886;8.074;2023-11-21T06:08:16;4.20;;;3.63;;
10894;SDS011;5500;49.886;8.074;2023-11-21T06:10:43;6.07;;;4.70;;
10894;SDS011;5500;49.886;8.074;2023-11-21T06:13:11;4.57;;;4.00;;
10894;SDS011;5500;49.886;8.074;2023-11-21T06:15:39;6.97;;;3.77;;
10894;SDS011;5500;49.886;8.074;2023-11-21T06:18:06;7.47;;;4.27;;
10894;SDS011;5500;49.886;8.074;2023-11-21T06:20:40;4.23;;;3.30;;
10894;SDS011;5500;49.886;8.074;2023-11-21T06:23:08;4.60;;;4.20;;
10894;SDS011;5500;49.886;8.074;2023-11-21T06:25:37;4.23;;;3.83;;
10894;SDS011;5500;49.886;8.074;2023-11-21T06:28:06;4.10;;;3.60;;
10894;SDS011;5500;49.886;8.074;2023-11-21T06:30:34;3.87;;;3.47;;
10894;SDS011;5500;49.886;8.074;2023-11-21T06:33:02;4.07;;;3.57;;
10894;SDS011;5500;49.886;8.074;2023-11-21T06:35:30;3.87;;;3.27;;
10894;SDS011;5500;49.886;8.074;2023-11-21T06:38:00;3.63;;;3.33;;
10894;SDS011;5500;49.886;8.074;2023-11-21T06:40:29;3.40;;;3.10;;
10894;SDS011;5500;49.886;8.074;2023-11-21T06:42:59;6.17;;;2.93;;
10894;SDS011;5500;49.886;8.074;2023-11-21T06:45:26;2.97;;;2.73;;
10894;SDS011;5500;49.886;8.074;2023-11-21T06:47:54;3.10;;;2.80;;
10894;SDS011;5500;49.886;8.074;2023-11-21T06:50:22;3.73;;;2.80;;
10894;SDS011;5500;49.886;8.074;2023-11-21T06:52:49;3.77;;;3.00;;
10894;SDS011;5500;49.886;8.074;2023-11-21T06:55:17;3.20;;;2.90;;
10894;SDS011;5500;49.886;8.074;2023-11-21T06:57:45;3.67;;;2.67;;
10894;SDS011;5500;49.886;8.074;2023-11-21T07:00:15;3.10;;;2.73;;
10894;SDS011;5500;49.886;8.074;2023-11-21T07:02:43;2.60;;;2.40;;
10894;SDS011;5500;49.886;8.074;2023-11-21T07:05:11;2.87;;;2.63;;
10894;SDS011;5500;49.886;8.074;2023-11-21T07:07:40;3.13;;;2.83;;
10894;SDS011;5500;49.886;8.074;2023-11-21T07:10:08;3.20;;;2.60;;
10894;SDS011;5500;49.886;8.074;2023-11-21T07:12:36;3.07;;;2.87;;
10894;SDS011;5500;49.886;8.074;2023-11-21T07:15:04;3.13;;;2.70;;
10894;SDS011;5500;49.886;8.074;2023-11-21T07:17:37;3.03;;;2.80;;
10894;SDS011;5500;49.886;8.074;2023-11-21T07:20:07;2.80;;;2.60;;
10894;SDS011;5500;49.886;8.074;2023-11-21T07:22:37;2.87;;;2.60;;
10894;SDS011;5500;49.886;8.074;2023-11-21T07:25:05;3.07;;;2.87;;
10894;SDS011;5500;49.886;8.074;2023-11-21T07:27:33;3.37;;;3.07;;
10894;SDS011;5500;49.886;8.074;2023-11-21T07:30:02;3.97;;;3.50;;
10894;SDS011;5500;49.886;8.074;2023-11-21T07:32:30;3.40;;;3.10;;
10894;SDS011;5500;49.886;8.074;2023-11-21T07:35:00;3.53;;;3.23;;
10894;SDS011;5500;49.886;8.074;2023-11-21T07:37:27;3.57;;;3.27;;
10894;SDS011;5500;49.886;8.074;2023-11-21T07:39:56;3.73;;;3.43;;
10894;SDS011;5500;49.886;8.074;2023-11-21T07:42:23;3.23;;;3.03;;
10894;SDS011;5500;49.886;8.074;2023-11-21T07:44:53;3.10;;;2.80;;
10894;SDS011;5500;49.886;8.074;2023-11-21T07:47:21;3.00;;;2.80;;
10894;SDS011;5500;49.886;8.074;2023-11-21T07:49:54;2.80;;;2.60;;
10894;SDS011;5500;49.886;8.074;2023-11-21T07:52:24;2.53;;;2.33;;
10894;SDS011;5500;49.886;8.074;2023-11-21T07:54:52;2.83;;;2.27;;
10894;SDS011;5500;49.886;8.074;2023-11-21T07:57:20;2.97;;;2.17;;
10894;SDS011;5500;49.886;8.074;2023-11-21T07:59:47;2.33;;;2.13;;
10894;SDS011;5500;49.886;8.074;2023-11-21T08:02:15;2.07;;;1.93;;
10894;SDS011;5500;49.886;8.074;2023-11-21T08:04:44;2.57;;;1.77;;
10894;SDS011;5500;49.886;8.074;2023-11-21T08:07:12;2.30;;;2.10;;
10894;SDS011;5500;49.886;8.074;2023-11-21T08:09:41;2.07;;;1.83;;
10894;SDS011;5500;49.886;8.074;2023-11-21T08:12:10;3.53;;;2.17;;
10894;SDS011;5500;49.886;8.074;2023-11-21T08:14:38;1.80;;;1.60;;
10894;SDS011;5500;49.886;8.074;2023-11-21T08:17:06;2.27;;;1.93;;
10894;SDS011;5500;49.886;8.074;2023-11-21T08:19:36;1.83;;;1.63;;
10894;SDS011;5500;49.886;8.074;2023-11-21T08:22:04;2.53;;;1.67;;
10894;SDS011;5500;49.886;8.074;2023-11-21T08:24:34;2.13;;;1.67;;
10894;SDS011;5500;49.886;8.074;2023-11-21T08:27:03;1.90;;;1.80;;
10894;SDS011;5500;49.886;8.074;2023-11-21T08:29:33;2.77;;;2.40;;
10894;SDS011;5500;49.886;8.074;2023-11-21T08:32:02;2.40;;;2.20;;
10894;SDS011;5500;49.886;8.074;2023-11-21T08:34:31;2.97;;;2.77;;
10894;SDS011;5500;49.886;8.074;2023-11-21T08:37:00;2.90;;;2.70;;
10894;SDS011;5500;49.886;8.074;2023-11-21T08:39:27;3.03;;;2.73;;
10894;SDS011;5500;49.886;8.074;2023-11-21T08:41:56;5.00;;;2.90;;
10894;SDS011;5500;49.886;8.074;2023-11-21T08:44:26;2.90;;;2.70;;
10894;SDS011;5500;49.886;8.074;2023-11-21T08:46:53;3.33;;;2.80;;
10894;SDS011;5500;49.886;8.074;2023-11-21T08:49:21;3.60;;;2.90;;
10894;SDS011;5500;49.886;8.074;2023-11-21T08:51:51;3.43;;;3.13;;
10894;SDS011;5500;49.886;8.074;2023-11-21T08:54:21;3.33;;;3.00;;
10894;SDS011;5500;49.886;8.074;2023-11-21T08:56:49;2.70;;;2.50;;
10894;SDS011;5500;49.886;8.074;2023-11-21T08:59:16;6.37;;;2.40;;
10894;SDS011;5500;49.886;8.074;2023-11-21T09:01:47;4.00;;;2.30;;
10894;SDS011;5500;49.886;8.074;2023-11-21T09:04:15;3.03;;;2.03;;
10894;SDS011;5500;49.886;8.074;2023-11-21T09:06:44;2.47;;;2.27;;
10894;SDS011;5500;49.886;8.074;2023-11-21T09:09:12;3.70;;;2.27;;
10894;SDS011;5500;49.886;8.074;2023-11-21T09:11:40;3.03;;;2.00;;
10894;SDS011;5500;49.886;8.074;2023-11-21T09:14:08;6.20;;;2.27;;
10894;SDS011;5500;49.886;8.074;2023-11-21T09:16:36;2.83;;;2.27;;
10894;SDS011;5500;49.886;8.074;2023-11-21T09:19:06;2.60;;;2.40;;
10894;SDS011;5500;49.886;8.074;2023-11-21T09:21:34;3.60;;;2.70;;
10894;SDS011;5500;49.886;8.074;2023-11-21T09:24:02;2.77;;;2.40;;
10894;SDS011;5500;49.886;8.074;2023-11-21T09:26:30;4.20;;;2.47;;
10894;SDS011;5500;49.886;8.074;2023-11-21T09:28:58;4.60;;;1.90;;
10894;SDS011;5500;49.886;8.074;2023-11-21T09:31:25;2.33;;;1.80;;
10894;SDS011;5500;49.886;8.074;2023-11-21T09:33:54;5.00;;;2.07;;
10894;SDS011;5500;49.886;8.074;2023-11-21T09:36:23;2.77;;;1.80;;
10894;SDS011;5500;49.886;8.074;2023-11-21T09:38:54;3.20;;;2.07;;
10894;SDS011;5500;49.886;8.074;2023-11-21T09:41:23;2.33;;;1.90;;
10894;SDS011;5500;49.886;8.074;2023-11-21T09:43:54;1.70;;;1.60;;
10894;SDS011;5500;49.886;8.074;2023-11-21T09:46:27;5.97;;;2.17;;
10894;SDS011;5500;49.886;8.074;2023-11-21T09:48:57;5.80;;;1.80;;
10894;SDS011;5500;49.886;8.074;2023-11-21T09:51:28;3.60;;;2.03;;
10894;SDS011;5500;49.886;8.074;2023-11-21T09:53:59;3.70;;;1.83;;
10894;SDS011;5500;49.886;8.074;2023-11-21T09:56:32;3.23;;;1.70;;
10894;SDS011;5500;49.886;8.074;2023-11-21T09:59:00;3.97;;;1.73;;
10894;SDS011;5500;49.886;8.074;2023-11-21T10:01:33;5.60;;;1.80;;
10894;SDS011;5500;49.886;8.074;2023-11-21T10:04:01;3.30;;;1.87;;
10894;SDS011;5500;49.886;8.074;2023-11-21T10:06:30;5.07;;;1.70;;
10894;SDS011;5500;49.886;8.074;2023-11-21T10:08:59;2.00;;;1.70;;
10894;SDS011;5500;49.886;8.074;2023-11-21T10:11:27;4.63;;;1.60;;
10894;SDS011;5500;49.886;8.074;2023-11-21T10:13:59;4.23;;;1.70;;
10894;SDS011;5500;49.886;8.074;2023-11-21T10:16:28;3.70;;;1.90;;
10894;SDS011;5500;49.886;8.074;2023-11-21T10:18:56;4.93;;;1.80;;
10894;SDS011;5500;49.886;8.074;2023-11-21T10:21:38;5.80;;;1.83;;
10894;SDS011;5500;49.886;8.074;2023-11-21T10:24:07;4.57;;;1.90;;
10894;SDS011;5500;49.886;8.074;2023-11-21T10:26:35;2.87;;;2.27;;
10894;SDS011;5500;49.886;8.074;2023-11-21T10:29:18;6.27;;;2.40;;
10894;SDS011;5500;49.886;8.074;2023-11-21T10:31:48;3.63;;;2.10;;
10894;SDS011;5500;49.886;8.074;2023-11-21T10:34:17;3.43;;;2.17;;
10894;SDS011;5500;49.886;8.074;2023-11-21T10:36:47;7.00;;;2.57;;
10894;SDS011;5500;49.886;8.074;2023-11-21T10:39:16;2.20;;;1.90;;
10894;SDS011;5500;49.886;8.074;2023-11-21T10:41:45;2.57;;;2.20;;
10894;SDS011;5500;49.886;8.074;2023-11-21T10:44:14;3.10;;;2.10;;
10894;SDS011;5500;49.886;8.074;2023-11-21T10:46:48;4.20;;;2.57;;
10894;SDS011;5500;49.886;8.074;2023-11-21T10:49:17;2.73;;;1.70;;
10894;SDS011;5500;49.886;8.074;2023-11-21T10:51:47;4.20;;;2.77;;
10894;SDS011;5500;49.886;8.074;2023-11-21T10:54:18;6.53;;;2.10;;
10894;SDS011;5500;49.886;8.074;2023-11-21T10:56:48;3.53;;;2.00;;
10894;SDS011;5500;49.886;8.074;2023-11-21T10:59:17;3.27;;;1.90;;
10894;SDS011;5500;49.886;8.074;2023-11-21T11:01:47;3.97;;;1.90;;
10894;SDS011;5500;49.886;8.074;2023-11-21T11:04:18;5.00;;;2.30;;
10894;SDS011;5500;49.886;8.074;2023-11-21T11:06:49;3.17;;;2.13;;
10894;SDS011;5500;49.886;8.074;2023-11-21T11:09:18;4.37;;;2.00;;
10894;SDS011;5500;49.886;8.074;2023-11-21T11:11:46;5.17;;;1.97;;
10894;SDS011;5500;49.886;8.074;2023-11-21T11:14:15;2.57;;;1.97;;
10894;SDS011;5500;49.886;8.074;2023-11-21T11:16:47;2.03;;;1.80;;
10894;SDS011;5500;49.886;8.074;2023-11-21T11:19:16;3.80;;;1.80;;
10894;SDS011;5500;49.886;8.074;2023-11-21T11:21:46;3.87;;;2.40;;
10894;SDS011;5500;49.886;8.074;2023-11-21T11:24:26;3.33;;;2.00;;
10894;SDS011;5500;49.886;8.074;2023-11-21T11:27:10;4.33;;;1.80;;
10894;SDS011;5500;49.886;8.074;2023-11-21T11:29:45;2.40;;;2.00;;
10894;SDS011;5500;49.886;8.074;2023-11-21T11:32:21;4.23;;;2.33;;
10894;SDS011;5500;49.886;8.074;2023-11-21T11:35:00;4.53;;;2.30;;
10894;SDS011;5500;49.886;8.074;2023-11-21T11:37:32;6.27;;;2.30;;
10894;SDS011;5500;49.886;8.074;2023-11-21T11:40:00;3.30;;;2.30;;
10894;SDS011;5500;49.886;8.074;2023-11-21T11:42:30;3.90;;;2.30;;
10894;SDS011;5500;49.886;8.074;2023-11-21T11:45:00;4.20;;;2.03;;
10894;SDS011;5500;49.886;8.074;2023-11-21T11:47:31;3.70;;;2.17;;
10894;SDS011;5500;49.886;8.074;2023-11-21T11:50:02;4.57;;;2.47;;
10894;SDS011;5500;49.886;8.074;2023-11-21T11:52:35;4.97;;;2.40;;
10894;SDS011;5500;49.886;8.074;2023-11-21T11:55:06;6.17;;;2.03;;
10894;SDS011;5500;49.886;8.074;2023-11-21T11:57:37;4.70;;;1.93;;
10894;SDS011;5500;49.886;8.074;2023-11-21T12:00:09;6.03;;;2.10;;
10894;SDS011;5500;49.886;8.074;2023-11-21T12:02:46;4.40;;;2.10;;
10894;SDS011;5500;49.886;8.074;2023-11-21T12:05:15;5.33;;;2.30;;
10894;SDS011;5500;49.886;8.074;2023-11-21T12:07:49;7.07;;;3.03;;
10894;SDS011;5500;49.886;8.074;2023-11-21T12:10:20;3.37;;;2.40;;
10894;SDS011;5500;49.886;8.074;2023-11-21T12:12:51;6.67;;;2.60;;
10894;SDS011;5500;49.886;8.074;2023-11-21T12:15:20;6.93;;;2.80;;
10894;SDS011;5500;49.886;8.074;2023-11-21T12:17:48;3.30;;;1.90;;
10894;SDS011;5500;49.886;8.074;2023-11-21T12:20:18;6.77;;;2.33;;
10894;SDS011;5500;49.886;8.074;2023-11-21T12:22:47;3.17;;;1.90;;
10894;SDS011;5500;49.886;8.074;2023-11-21T12:25:17;4.80;;;2.00;;
10894;SDS011;5500;49.886;8.074;2023-11-21T12:27:46;6.80;;;2.40;;
10894;SDS011;5500;49.886;8.074;2023-11-21T12:30:16;5.03;;;2.40;;
10894;SDS011;5500;49.886;8.074;2023-11-21T12:32:47;5.10;;;2.20;;
10894;SDS011;5500;49.886;8.074;2023-11-21T12:35:16;3.83;;;2.43;;
10894;SDS011;5500;49.886;8.074;2023-11-21T12:37:45;6.10;;;2.60;;
10894;SDS011;5500;49.886;8.074;2023-11-21T12:40:15;3.27;;;2.43;;
10894;SDS011;5500;49.886;8.074;2023-11-21T12:42:44;3.83;;;2.57;;
10894;SDS011;5500;49.886;8.074;2023-11-21T12:45:21;4.43;;;2.80;;
10894;SDS011;5500;49.886;8.074;2023-11-21T12:47:54;3.70;;;2.47;;
10894;SDS011;5500;49.886;8.074;2023-11-21T12:50:26;4.50;;;3.20;;
10894;SDS011;5500;49.886;8.074;2023-11-21T12:52:58;4.53;;;3.13;;
10894;SDS011;5500;49.886;8.074;2023-11-21T12:55:30;3.80;;;2.87;;
10894;SDS011;5500;49.886;8.074;2023-11-21T12:58:05;5.37;;;3.57;;
10894;SDS011;5500;49.886;8.074;2023-11-21T13:00:37;3.60;;;3.07;;
10894;SDS011;5500;49.886;8.074;2023-11-21T13:03:09;6.33;;;3.80;;
10894;SDS011;5500;49.886;8.074;2023-11-21T13:05:39;6.03;;;3.20;;
10894;SDS011;5500;49.886;8.074;2023-11-21T13:08:11;5.60;;;3.40;;
10894;SDS011;5500;49.886;8.074;2023-11-21T13:10:43;4.90;;;3.43;;
10894;SDS011;5500;49.886;8.074;2023-11-21T13:13:13;3.63;;;3.17;;
10894;SDS011;5500;49.886;8.074;2023-11-21T13:15:49;3.40;;;3.10;;
10894;SDS011;5500;49.886;8.074;2023-11-21T13:18:22;4.60;;;3.10;;
10894;SDS011;5500;49.886;8.074;2023-11-21T13:20:52;5.20;;;3.60;;
10894;SDS011;5500;49.886;8.074;2023-11-21T13:23:21;3.73;;;2.83;;
10894;SDS011;5500;49.886;8.074;2023-11-21T13:25:51;4.27;;;3.10;;
10894;SDS011;5500;49.886;8.074;2023-11-21T13:28:31;4.30;;;3.10;;
10894;SDS011;5500;49.886;8.074;2023-11-21T13:31:00;3.77;;;2.90;;
10894;SDS011;5500;49.886;8.074;2023-11-21T13:33:37;3.87;;;2.97;;
10894;SDS011;5500;49.886;8.074;2023-11-21T13:36:07;4.43;;;3.47;;
10894;SDS011;5500;49.886;8.074;2023-11-21T13:38:37;6.43;;;4.00;;
10894;SDS011;5500;49.886;8.074;2023-11-21T13:41:11;4.10;;;3.70;;
10894;SDS011;5500;49.886;8.074;2023-11-21T13:43:40;5.20;;;3.77;;
10894;SDS011;5500;49.886;8.074;2023-11-21T13:46:14;4.80;;;3.73;;
10894;SDS011;5500;49.886;8.074;2023-11-21T13:48:49;7.57;;;4.03;;
10894;SDS011;5500;49.886;8.074;2023-11-21T13:51:22;4.47;;;3.20;;
10894;SDS011;5500;49.886;8.074;2023-11-21T13:53:58;7.47;;;3.67;;
10894;SDS011;5500;49.886;8.074;2023-11-21T13:56:28;5.87;;;3.60;;
10894;SDS011;5500;49.886;8.074;2023-11-21T13:58:57;3.37;;;3.07;;
10894;SDS011;5500;49.886;8.074;2023-11-21T14:01:34;5.37;;;3.20;;
10894;SDS011;5500;49.886;8.074;2023-11-21T14:04:20;5.13;;;3.37;;
10894;SDS011;5500;49.886;8.074;2023-11-21T14:07:02;3.87;;;2.97;;
10894;SDS011;5500;49.886;8.074;2023-11-21T14:09:48;5.73;;;3.03;;
10894;SDS011;5500;49.886;8.074;2023-11-21T14:12:18;5.33;;;3.50;;
10894;SDS011;5500;49.886;8.074;2023-11-21T14:14:46;5.83;;;3.17;;
10894;SDS011;5500;49.886;8.074;2023-11-21T14:17:15;4.20;;;2.90;;
10894;SDS011;5500;49.886;8.074;2023-11-21T14:19:43;5.63;;;3.20;;
10894;SDS011;5500;49.886;8.074;2023-11-21T14:22:11;5.63;;;3.27;;
10894;SDS011;5500;49.886;8.074;2023-11-21T14:24:39;6.63;;;3.40;;
10894;SDS011;5500;49.886;8.074;2023-11-21T14:27:14;8.63;;;3.43;;
10894;SDS011;5500;49.886;8.074;2023-11-21T14:29:45;6.70;;;3.20;;
10894;SDS011;5500;49.886;8.074;2023-11-21T14:32:13;5.20;;;3.07;;
10894;SDS011;5500;49.886;8.074;2023-11-21T14:34:42;6.00;;;3.37;;
10894;SDS011;5500;49.886;8.074;2023-11-21T14:37:13;7.40;;;3.40;;
10894;SDS011;5500;49.886;8.074;2023-11-21T14:39:41;5.37;;;3.30;;
10894;SDS011;5500;49.886;8.074;2023-11-21T14:42:12;5.90;;;3.50;;
10894;SDS011;5500;49.886;8.074;2023-11-21T14:44:41;5.80;;;3.90;;
10894;SDS011;5500;49.886;8.074;2023-11-21T14:47:11;4.07;;;3.20;;
10894;SDS011;5500;49.886;8.074;2023-11-21T14:49:43;6.67;;;3.30;;
10894;SDS011;5500;49.886;8.074;2023-11-21T14:52:23;7.73;;;3.50;;
10894;SDS011;5500;49.886;8.074;2023-11-21T14:55:02;7.37;;;3.70;;
10894;SDS011;5500;49.886;8.074;2023-11-21T14:57:53;6.73;;;3.50;;
10894;SDS011;5500;49.886;8.074;2023-11-21T15:00:21;6.20;;;3.63;;
10894;SDS011;5500;49.886;8.074;2023-11-21T15:03:12;9.50;;;3.10;;
10894;SDS011;5500;49.886;8.074;2023-11-21T15:06:01;5.83;;;3.00;;
10894;SDS011;5500;49.886;8.074;2023-11-21T15:08:48;7.17;;;3.17;;
10894;SDS011;5500;49.886;8.074;2023-11-21T15:11:21;5.23;;;3.57;;
10894;SDS011;5500;49.886;8.074;2023-11-21T15:13:54;5.97;;;3.13;;
10894;SDS011;5500;49.886;8.074;2023-11-21T15:16:21;7.43;;;3.60;;